Time;durP1;ratioP1;P1;durP2;ratioP2;P2;SDS_P1;SDS_P2;PMS_P1;PMS_P2;Temp;Humidity;BMP_temperature;BMP_pressure;BME280_temperature;BME280_humidity;BME280_pressure;Samples;Min_cycle;Max_cycle;Signal;HPM_P1;HPM_P2
2021/11/30 00:00:11;;;;;;;0.93;0.40;;;21.20;33.10;;;;;;4965221;28;20398;-69
2021/11/30 00:02:36;;;;;;;1.90;0.40;;;21.20;32.60;;;;;;4966870;28;20481;-68
2021/11/30 00:05:06;;;;;;;1.30;0.40;;;21.20;32.80;;;;;;4972864;28;21060;-68
2021/11/30 00:07:32;;;;;;;1.83;0.50;;;21.20;32.80;;;;;;4970037;28;20392;-68
2021/11/30 00:12:35;;;;;;;1.20;0.30;;;21.20;32.90;;;;;;4970842;28;20829;-68
2021/11/30 00:15:00;;;;;;;1.48;0.40;;;21.20;32.60;;;;;;4969138;28;20502;-68
2021/11/30 00:17:26;;;;;;;0.85;0.40;;;21.20;32.90;;;;;;4972305;28;20378;-68
2021/11/30 00:19:53;;;;;;;0.60;0.40;;;21.20;32.40;;;;;;4973892;28;20405;-69
2021/11/30 00:22:23;;;;;;;0.63;0.40;;;21.20;32.70;;;;;;4969970;28;20413;-68
2021/11/30 00:24:50;;;;;;;0.90;0.45;;;21.20;32.60;;;;;;4966532;28;20443;-68
2021/11/30 00:27:17;;;;;;;0.60;0.40;;;21.20;32.90;;;;;;4977750;28;20397;-68
2021/11/30 00:29:43;;;;;;;1.83;0.40;;;21.20;32.70;;;;;;4970698;28;21211;-68
2021/11/30 00:32:10;;;;;;;0.90;0.30;;;21.20;33.80;;;;;;4974268;28;20391;-69
2021/11/30 00:34:36;;;;;;;0.60;0.40;;;21.10;32.90;;;;;;4971983;28;20436;-69
2021/11/30 00:37:02;;;;;;;0.77;0.40;;;21.10;33.60;;;;;;4974725;28;20387;-68
2021/11/30 00:39:28;;;;;;;0.50;0.40;;;21.10;33.30;;;;;;4970427;28;20450;-67
2021/11/30 00:41:58;;;;;;;1.17;0.30;;;21.10;33.40;;;;;;4971781;28;20416;-70
2021/11/30 00:44:27;;;;;;;1.10;0.43;;;21.10;32.70;;;;;;4966519;28;20403;-68
2021/11/30 00:46:55;;;;;;;0.80;0.40;;;21.10;32.90;;;;;;4972078;28;21027;-68
2021/11/30 00:49:22;;;;;;;0.55;0.30;;;21.10;33.00;;;;;;4973337;28;20422;-68
2021/11/30 00:51:50;;;;;;;1.00;0.50;;;21.10;32.50;;;;;;4971672;28;20455;-69
2021/11/30 00:54:18;;;;;;;0.70;0.47;;;21.10;33.00;;;;;;4971440;28;21359;-68
2021/11/30 00:56:47;;;;;;;1.23;0.40;;;21.10;32.80;;;;;;4974512;28;20416;-69
2021/11/30 00:59:13;;;;;;;0.88;0.50;;;21.10;33.00;;;;;;4973645;28;20395;-69
2021/11/30 01:01:40;;;;;;;0.85;0.45;;;21.10;32.60;;;;;;4970540;28;20774;-67
2021/11/30 01:04:09;;;;;;;1.35;0.57;;;21.10;32.90;;;;;;4972655;28;20475;-68
2021/11/30 01:06:36;;;;;;;0.88;0.47;;;21.10;33.10;;;;;;4970962;28;21616;-68
2021/11/30 01:09:03;;;;;;;0.82;0.50;;;21.00;32.70;;;;;;4965285;28;20420;-69
2021/11/30 01:11:29;;;;;;;0.90;0.40;;;21.00;32.70;;;;;;4971441;28;20402;-68
2021/11/30 01:13:54;;;;;;;1.17;0.60;;;21.00;32.40;;;;;;4968864;28;20390;-68
2021/11/30 01:16:20;;;;;;;0.93;0.60;;;21.00;33.00;;;;;;4975075;28;20467;-70
2021/11/30 01:18:45;;;;;;;0.60;0.40;;;21.00;33.10;;;;;;4973564;28;20431;-69
2021/11/30 01:21:11;;;;;;;1.23;0.50;;;21.00;32.80;;;;;;4969842;28;20404;-68
2021/11/30 01:23:37;;;;;;;1.00;0.50;;;21.00;33.10;;;;;;4972453;28;20407;-69
2021/11/30 01:26:03;;;;;;;0.80;0.50;;;20.90;33.90;;;;;;4970341;28;20408;-68
2021/11/30 01:28:29;;;;;;;0.95;0.47;;;21.00;33.10;;;;;;4971616;28;21283;-69
2021/11/30 01:30:55;;;;;;;0.75;0.50;;;21.00;34.00;;;;;;4973845;28;20559;-70
2021/11/30 01:33:20;;;;;;;0.90;0.50;;;21.00;33.00;;;;;;4975593;28;20780;-68
2021/11/30 01:35:47;;;;;;;1.00;0.60;;;20.90;33.20;;;;;;4975753;28;20496;-69
2021/11/30 01:38:14;;;;;;;1.45;0.50;;;20.90;33.80;;;;;;4978777;28;21012;-69
2021/11/30 01:40:40;;;;;;;0.65;0.40;;;21.00;33.50;;;;;;4977999;28;20416;-68
2021/11/30 01:43:08;;;;;;;0.70;0.40;;;21.00;33.80;;;;;;4976958;28;20891;-68
2021/11/30 01:50:35;;;;;;;1.20;0.40;;;21.00;33.80;;;;;;4968490;28;20431;-70
2021/11/30 01:53:02;;;;;;;0.98;0.50;;;21.00;33.90;;;;;;4976252;28;20390;-69
2021/11/30 01:55:31;;;;;;;0.70;0.40;;;21.00;34.10;;;;;;4974483;28;20573;-67
2021/11/30 01:57:57;;;;;;;0.63;0.40;;;21.00;34.00;;;;;;4976479;28;20436;-67
2021/11/30 02:00:23;;;;;;;0.90;0.40;;;21.00;33.90;;;;;;4975822;28;20412;-68
2021/11/30 02:02:49;;;;;;;0.70;0.43;;;20.90;34.00;;;;;;4970891;28;20430;-67
2021/11/30 02:05:15;;;;;;;0.93;0.40;;;20.90;34.00;;;;;;4966861;28;20439;-68
2021/11/30 02:18:02;;;;;;;0.70;0.40;;;21.00;33.60;;;;;;3086933;28;23190;-68
2021/11/30 02:20:28;;;;;;;1.80;0.40;;;21.00;33.20;;;;;;4970900;28;20408;-68
2021/11/30 02:22:54;;;;;;;0.55;0.40;;;21.00;33.60;;;;;;4972493;28;20511;-68
2021/11/30 02:25:21;;;;;;;0.60;0.40;;;21.00;33.30;;;;;;4973850;28;20539;-68
2021/11/30 02:27:47;;;;;;;0.52;0.32;;;21.00;33.40;;;;;;4975819;28;20407;-67
2021/11/30 02:30:12;;;;;;;0.63;0.40;;;21.00;33.40;;;;;;4978192;28;20437;-68
2021/11/30 02:32:38;;;;;;;0.90;0.50;;;20.90;33.60;;;;;;4971888;28;20758;-68
2021/11/30 02:35:04;;;;;;;0.57;0.30;;;21.00;33.90;;;;;;4978588;28;20397;-68
2021/11/30 02:37:37;;;;;;;0.60;0.40;;;21.00;33.60;;;;;;4972162;28;20393;-68
2021/11/30 02:40:05;;;;;;;0.60;0.38;;;21.00;33.00;;;;;;4972314;28;20917;-67
2021/11/30 02:42:30;;;;;;;0.70;0.40;;;21.00;33.90;;;;;;4968415;28;20483;-68
2021/11/30 02:44:56;;;;;;;0.43;0.40;;;20.90;33.80;;;;;;4970468;28;20899;-71
2021/11/30 02:47:24;;;;;;;1.33;0.40;;;21.00;33.80;;;;;;4973705;28;20743;-69
2021/11/30 02:49:50;;;;;;;0.60;0.30;;;21.00;34.10;;;;;;4970119;28;20424;-69
2021/11/30 02:52:18;;;;;;;0.60;0.30;;;21.00;33.30;;;;;;4973388;28;20390;-70
2021/11/30 02:54:46;;;;;;;0.35;0.30;;;21.00;33.50;;;;;;4972695;28;20479;-73
2021/11/30 02:57:14;;;;;;;1.10;0.40;;;20.90;33.80;;;;;;4973192;28;20404;-68
2021/11/30 02:59:43;;;;;;;0.70;0.30;;;21.00;33.70;;;;;;4974159;28;20474;-70
2021/11/30 03:02:16;;;;;;;0.57;0.40;;;21.00;33.80;;;;;;4972474;28;20936;-68
2021/11/30 03:04:45;;;;;;;0.50;0.30;;;20.90;33.00;;;;;;4967977;28;20400;-70
2021/11/30 03:07:18;;;;;;;0.40;0.40;;;20.90;33.30;;;;;;4976044;28;20489;-68
2021/11/30 03:09:44;;;;;;;0.63;0.40;;;20.90;33.10;;;;;;4978687;28;20965;-68
2021/11/30 03:12:10;;;;;;;0.47;0.30;;;20.90;33.50;;;;;;4971076;28;20489;-68
2021/11/30 03:14:37;;;;;;;0.45;0.30;;;20.90;33.30;;;;;;4968731;28;20487;-68
2021/11/30 03:17:03;;;;;;;0.70;0.30;;;20.90;33.60;;;;;;4972960;28;20491;-69
2021/11/30 03:19:30;;;;;;;0.30;0.30;;;20.90;34.00;;;;;;4976092;28;20420;-68
2021/11/30 03:21:57;;;;;;;0.82;0.30;;;20.90;33.60;;;;;;4968604;28;20575;-68
2021/11/30 03:24:23;;;;;;;1.00;0.30;;;20.90;33.90;;;;;;4970900;28;20447;-68
2021/11/30 03:26:48;;;;;;;0.40;0.30;;;20.90;33.70;;;;;;4966517;28;20399;-68
2021/11/30 03:29:14;;;;;;;0.43;0.30;;;20.90;33.70;;;;;;4970061;28;20408;-68
2021/11/30 03:34:09;;;;;;;0.40;0.30;;;20.90;33.40;;;;;;4970255;28;20396;-68
2021/11/30 03:36:37;;;;;;;0.60;0.38;;;20.90;33.30;;;;;;4972679;28;20886;-68
2021/11/30 03:39:08;;;;;;;1.50;0.30;;;20.90;33.20;;;;;;4969957;28;20886;-68
2021/11/30 03:41:34;;;;;;;0.80;0.30;;;20.90;33.90;;;;;;4970154;28;20404;-68
2021/11/30 03:44:02;;;;;;;0.80;0.40;;;20.90;33.90;;;;;;4969846;28;20487;-68
2021/11/30 03:46:30;;;;;;;0.50;0.30;;;20.80;33.30;;;;;;4970495;28;20392;-67
2021/11/30 03:48:56;;;;;;;0.60;0.20;;;20.90;33.80;;;;;;4974755;28;20917;-68
2021/11/30 03:51:22;;;;;;;0.30;0.20;;;20.80;33.50;;;;;;4975019;28;20629;-68
2021/11/30 03:53:47;;;;;;;0.33;0.20;;;20.80;33.30;;;;;;4969984;28;20488;-68
2021/11/30 03:56:13;;;;;;;0.55;0.22;;;20.80;33.10;;;;;;4970679;28;20402;-68
2021/11/30 03:58:39;;;;;;;0.50;0.30;;;20.80;33.50;;;;;;4970503;28;20398;-68
2021/11/30 04:01:05;;;;;;;0.40;0.30;;;20.80;32.90;;;;;;4967893;28;20400;-73
2021/11/30 04:03:33;;;;;;;0.50;0.30;;;20.80;33.50;;;;;;4964955;28;20491;-67
2021/11/30 04:06:01;;;;;;;0.50;0.30;;;20.80;32.90;;;;;;4972036;28;20479;-69
2021/11/30 04:08:27;;;;;;;2.00;0.30;;;20.80;33.00;;;;;;4971286;28;20441;-69
2021/11/30 04:10:53;;;;;;;1.20;0.30;;;20.90;33.50;;;;;;4972927;28;20446;-73
2021/11/30 04:13:18;;;;;;;2.47;1.33;;;21.00;33.80;;;;;;4974128;28;20870;-69
2021/11/30 04:15:44;;;;;;;1.90;0.70;;;21.10;34.00;;;;;;4975119;28;20398;-73
2021/11/30 04:18:10;;;;;;;2.37;0.50;;;21.10;33.90;;;;;;4975475;28;20827;-68
2021/11/30 04:20:36;;;;;;;1.50;0.30;;;21.10;33.70;;;;;;4971700;28;20447;-70
2021/11/30 04:23:02;;;;;;;0.83;0.30;;;21.10;33.30;;;;;;4970839;28;20433;-68
2021/11/30 04:25:28;;;;;;;1.58;0.30;;;21.10;33.20;;;;;;4970604;28;20399;-69
2021/11/30 04:27:53;;;;;;;2.37;0.30;;;21.10;33.10;;;;;;4969469;28;21467;-69
2021/11/30 04:30:19;;;;;;;1.30;0.35;;;21.20;33.10;;;;;;4965733;28;20428;-68
2021/11/30 04:32:45;;;;;;;1.77;0.40;;;21.10;33.00;;;;;;4973140;28;20872;-68
2021/11/30 04:35:11;;;;;;;1.55;0.35;;;21.10;33.10;;;;;;4969632;28;20481;-71
2021/11/30 04:37:38;;;;;;;0.90;0.40;;;21.20;33.00;;;;;;4970728;28;20948;-68
2021/11/30 04:40:09;;;;;;;1.85;0.38;;;21.10;32.90;;;;;;4974883;28;20400;-68
2021/11/30 04:42:35;;;;;;;2.20;0.40;;;21.00;33.30;;;;;;4975526;28;20417;-72
2021/11/30 04:47:28;;;;;;;2.50;0.40;;;21.00;33.70;;;;;;4976237;28;20450;-69
2021/11/30 04:49:57;;;;;;;1.80;0.37;;;21.00;34.10;;;;;;4976317;28;20495;-70
2021/11/30 04:52:23;;;;;;;0.82;0.40;;;20.90;34.20;;;;;;4975332;28;20956;-68
2021/11/30 04:54:49;;;;;;;2.80;0.50;;;21.00;34.30;;;;;;4976966;28;20475;-68
2021/11/30 04:57:15;;;;;;;1.50;0.47;;;20.90;33.90;;;;;;4974777;28;20475;-67
2021/11/30 04:59:41;;;;;;;1.85;0.40;;;20.90;33.60;;;;;;4973293;28;20390;-68
2021/11/30 05:02:06;;;;;;;1.50;0.40;;;20.90;33.40;;;;;;4969018;28;20800;-68
2021/11/30 05:04:34;;;;;;;1.75;0.40;;;20.90;33.30;;;;;;4973484;28;20394;-68
2021/11/30 05:07:00;;;;;;;1.52;0.45;;;20.90;33.40;;;;;;4971626;28;20413;-68
2021/11/30 05:09:25;;;;;;;2.17;0.30;;;20.90;33.20;;;;;;4974125;28;20863;-68
2021/11/30 05:11:51;;;;;;;1.57;0.30;;;20.90;33.20;;;;;;4971764;28;20391;-69
2021/11/30 05:14:17;;;;;;;0.82;0.40;;;20.90;33.10;;;;;;4972582;28;20403;-69
2021/11/30 05:16:42;;;;;;;1.50;0.40;;;20.90;32.90;;;;;;4970534;28;20403;-68
2021/11/30 05:19:08;;;;;;;0.95;0.30;;;20.90;32.80;;;;;;4971382;28;20416;-68
2021/11/30 05:21:34;;;;;;;1.30;0.40;;;20.90;32.90;;;;;;4969894;28;20400;-72
2021/11/30 05:24:03;;;;;;;0.67;0.30;;;20.90;32.80;;;;;;4967656;28;20438;-68
2021/11/30 05:26:30;;;;;;;0.90;0.30;;;20.90;32.50;;;;;;4972588;28;20894;-69
2021/11/30 05:28:56;;;;;;;1.30;0.30;;;20.90;32.80;;;;;;4975218;28;20903;-69
2021/11/30 05:31:22;;;;;;;2.70;0.40;;;20.90;32.90;;;;;;4965104;28;20427;-71
2021/11/30 05:33:49;;;;;;;1.20;0.40;;;20.90;33.30;;;;;;4973654;28;20387;-70
2021/11/30 05:36:17;;;;;;;4.07;0.68;;;20.90;33.60;;;;;;4971339;28;20392;-70
2021/11/30 05:38:43;;;;;;;3.92;0.50;;;20.90;33.80;;;;;;4974550;28;20379;-69
2021/11/30 05:41:09;;;;;;;1.77;0.40;;;20.90;34.10;;;;;;4970560;28;20403;-71
2021/11/30 05:43:36;;;;;;;3.45;0.55;;;21.00;34.40;;;;;;4972968;28;20467;-70
2021/11/30 05:46:01;;;;;;;3.30;0.40;;;21.00;34.20;;;;;;4972671;28;20444;-72
2021/11/30 05:48:27;;;;;;;5.27;0.53;;;21.00;34.10;;;;;;4971620;28;20404;-71
2021/11/30 05:50:53;;;;;;;2.00;0.40;;;21.00;34.20;;;;;;4972696;28;20428;-71
2021/11/30 05:53:19;;;;;;;1.70;0.50;;;21.10;34.20;;;;;;4973800;28;20399;-72
2021/11/30 05:55:48;;;;;;;3.83;0.50;;;21.10;34.30;;;;;;4971584;28;20404;-68
2021/11/30 05:58:15;;;;;;;3.72;0.50;;;21.10;34.20;;;;;;4969091;28;20408;-70
2021/11/30 06:00:41;;;;;;;2.33;0.50;;;21.10;34.20;;;;;;4973522;28;20435;-68
2021/11/30 06:03:20;;;;;;;4.57;0.50;;;21.20;34.30;;;;;;4970408;28;20510;-68
2021/11/30 06:05:46;;;;;;;2.55;0.55;;;21.20;34.20;;;;;;4973262;28;20398;-70
2021/11/30 06:08:12;;;;;;;6.30;0.60;;;21.10;34.00;;;;;;4966542;28;20443;-69
2021/11/30 06:10:37;;;;;;;4.03;1.35;;;21.20;34.60;;;;;;4971660;28;20420;-68
2021/11/30 06:13:03;;;;;;;4.00;0.70;;;21.20;35.30;;;;;;4969395;28;20475;-68
2021/11/30 06:15:29;;;;;;;4.10;0.88;;;21.30;36.00;;;;;;4973127;28;20456;-68
2021/11/30 06:17:55;;;;;;;5.35;1.63;;;21.30;36.40;;;;;;4976546;28;20487;-70
2021/11/30 06:20:21;;;;;;;2.23;0.87;;;21.30;36.60;;;;;;4975814;28;20472;-68
2021/11/30 06:22:47;;;;;;;5.50;0.88;;;21.30;35.70;;;;;;4973296;28;20468;-69
2021/11/30 06:25:13;;;;;;;2.33;0.70;;;21.30;34.50;;;;;;4972314;28;20407;-69
2021/11/30 06:27:40;;;;;;;3.92;0.73;;;21.20;34.60;;;;;;4977506;28;20426;-68
2021/11/30 06:30:07;;;;;;;2.60;0.60;;;21.20;34.80;;;;;;4974846;28;20435;-68
2021/11/30 06:32:32;;;;;;;3.33;0.60;;;21.20;34.80;;;;;;4974021;28;20465;-68
2021/11/30 06:34:58;;;;;;;3.50;0.53;;;21.20;34.50;;;;;;4971411;28;20973;-68
2021/11/30 06:37:24;;;;;;;2.33;0.50;;;21.20;34.30;;;;;;4968422;28;20447;-69
2021/11/30 06:39:52;;;;;;;2.00;0.50;;;21.20;34.20;;;;;;4974773;28;20407;-69
2021/11/30 06:42:18;;;;;;;1.20;0.50;;;21.10;34.90;;;;;;4979414;28;20887;-69
2021/11/30 06:44:46;;;;;;;3.50;0.70;;;21.10;34.60;;;;;;4974439;28;20427;-69
2021/11/30 06:47:11;;;;;;;2.08;0.57;;;21.10;34.00;;;;;;4972645;28;20401;-69
2021/11/30 06:49:37;;;;;;;3.17;0.80;;;21.10;33.90;;;;;;4969603;28;21681;-70
2021/11/30 06:52:03;;;;;;;1.80;0.40;;;21.10;33.70;;;;;;4970774;28;20486;-70
2021/11/30 06:54:29;;;;;;;2.00;0.43;;;21.00;33.50;;;;;;4971205;28;20882;-70
2021/11/30 06:56:55;;;;;;;2.40;0.60;;;21.10;33.50;;;;;;4969823;28;20399;-69
2021/11/30 06:59:23;;;;;;;1.73;0.40;;;21.00;34.00;;;;;;4967138;28;20392;-69
2021/11/30 07:01:49;;;;;;;2.20;0.40;;;21.00;33.30;;;;;;4967633;28;20415;-70
2021/11/30 07:04:14;;;;;;;1.60;0.50;;;21.00;33.30;;;;;;4969790;28;20395;-71
2021/11/30 07:07:07;;;;;;;1.20;0.40;;;21.00;33.80;;;;;;4971236;28;20403;-70
2021/11/30 07:10:06;;;;;;;1.50;0.40;;;21.00;33.70;;;;;;4970579;28;20904;-72
2021/11/30 07:15:09;;;;;;;0.90;0.30;;;21.00;33.90;;;;;;4976828;28;20452;-69
2021/11/30 07:17:35;;;;;;;1.50;0.50;;;20.90;33.50;;;;;;4974177;28;20884;-69
2021/11/30 07:20:04;;;;;;;1.80;0.40;;;20.90;33.30;;;;;;4971682;28;20422;-69
2021/11/30 07:22:29;;;;;;;1.30;0.35;;;20.90;33.30;;;;;;4972670;28;20454;-72
2021/11/30 07:24:55;;;;;;;0.65;0.30;;;20.90;33.20;;;;;;4966267;28;20874;-69
2021/11/30 07:27:21;;;;;;;1.03;0.30;;;20.90;33.20;;;;;;4970593;28;20898;-68
2021/11/30 07:29:47;;;;;;;0.90;0.30;;;20.80;33.10;;;;;;4973469;28;20930;-69
2021/11/30 07:32:13;;;;;;;0.57;0.30;;;20.90;32.90;;;;;;4979819;28;20425;-72
2021/11/30 07:34:39;;;;;;;0.55;0.30;;;20.90;32.90;;;;;;4972371;28;20489;-69
2021/11/30 07:37:04;;;;;;;1.13;0.30;;;20.90;32.80;;;;;;4970148;28;20391;-69
2021/11/30 07:39:31;;;;;;;1.38;0.47;;;20.90;32.80;;;;;;4968794;28;20409;-70
2021/11/30 07:41:56;;;;;;;1.50;0.30;;;20.90;32.80;;;;;;4968789;28;20393;-69
2021/11/30 07:44:22;;;;;;;0.80;0.38;;;20.80;32.80;;;;;;4965021;28;20928;-69
2021/11/30 07:46:48;;;;;;;0.90;0.30;;;20.80;32.70;;;;;;4969354;28;20520;-70
2021/11/30 07:49:14;;;;;;;0.82;0.30;;;20.90;32.80;;;;;;4975300;28;20400;-68
2021/11/30 07:51:40;;;;;;;1.35;0.30;;;20.90;32.60;;;;;;4975760;28;20546;-72
2021/11/30 07:54:07;;;;;;;1.50;0.20;;;20.90;33.00;;;;;;4972102;28;20396;-69
2021/11/30 07:56:33;;;;;;;0.50;0.30;;;21.00;33.10;;;;;;4972827;28;20404;-68
2021/11/30 07:58:59;;;;;;;1.30;0.30;;;21.00;33.00;;;;;;4971114;28;20441;-70
2021/11/30 08:01:25;;;;;;;0.75;0.20;;;21.00;32.80;;;;;;4968130;28;20399;-70
2021/11/30 08:03:51;;;;;;;1.30;0.30;;;21.00;32.60;;;;;;4973546;28;20481;-70
2021/11/30 08:06:17;;;;;;;0.50;0.30;;;21.00;32.60;;;;;;4977900;28;20430;-71
2021/11/30 08:08:43;;;;;;;0.75;0.30;;;21.10;32.50;;;;;;4973909;28;20494;-71
2021/11/30 08:11:09;;;;;;;0.47;0.20;;;21.00;32.50;;;;;;4972103;28;20875;-70
2021/11/30 08:13:36;;;;;;;0.35;0.28;;;21.10;32.60;;;;;;4968782;28;20909;-70
2021/11/30 08:16:01;;;;;;;0.95;0.40;;;21.00;32.50;;;;;;4974623;28;20465;-71
2021/11/30 08:18:28;;;;;;;0.63;0.30;;;21.00;32.40;;;;;;4974986;28;21188;-71
2021/11/30 08:20:55;;;;;;;0.43;0.30;;;21.00;32.40;;;;;;4971213;28;20412;-72
2021/11/30 08:23:21;;;;;;;1.08;0.20;;;21.00;32.40;;;;;;4974030;28;20408;-70
2021/11/30 08:25:47;;;;;;;0.70;0.40;;;21.00;32.30;;;;;;4975308;28;20413;-71
2021/11/30 08:28:13;;;;;;;0.70;0.30;;;21.00;32.30;;;;;;4974423;28;20400;-70
2021/11/30 08:30:39;;;;;;;1.10;0.30;;;21.10;32.40;;;;;;4976606;28;20496;-70
2021/11/30 08:33:05;;;;;;;0.60;0.30;;;21.00;32.30;;;;;;4969337;28;20938;-70
2021/11/30 08:35:31;;;;;;;1.17;0.43;;;21.00;32.30;;;;;;4971300;28;20491;-73
2021/11/30 08:37:57;;;;;;;1.20;0.50;;;21.00;32.30;;;;;;4973241;28;20391;-73
2021/11/30 08:40:22;;;;;;;0.90;0.50;;;21.00;32.30;;;;;;4973413;28;20392;-70
2021/11/30 08:42:48;;;;;;;0.73;0.43;;;21.00;32.30;;;;;;4969765;28;20497;-72
2021/11/30 08:45:14;;;;;;;1.03;0.40;;;21.00;32.20;;;;;;4972460;28;20396;-71
2021/11/30 08:47:40;;;;;;;0.90;0.50;;;21.00;32.10;;;;;;4968180;28;20391;-71
2021/11/30 08:50:10;;;;;;;0.77;0.40;;;21.00;32.00;;;;;;4974382;28;20428;-71
2021/11/30 08:52:36;;;;;;;1.63;0.57;;;21.00;32.20;;;;;;4975166;28;20392;-70
2021/11/30 08:55:04;;;;;;;0.90;0.40;;;21.00;32.30;;;;;;4971828;28;20877;-72
2021/11/30 08:57:29;;;;;;;1.10;0.60;;;21.00;32.20;;;;;;4969483;28;20400;-69
2021/11/30 08:59:57;;;;;;;0.73;0.50;;;21.00;32.10;;;;;;4971255;28;20390;-69
2021/11/30 09:02:24;;;;;;;1.10;0.38;;;21.00;32.00;;;;;;4967782;28;20876;-70
2021/11/30 09:04:50;;;;;;;1.10;0.45;;;21.00;32.30;;;;;;4968573;28;20410;-71
2021/11/30 09:07:17;;;;;;;0.80;0.47;;;21.00;32.10;;;;;;4969556;28;20394;-70
2021/11/30 09:09:45;;;;;;;1.60;0.50;;;21.00;32.30;;;;;;4967282;28;20411;-70
2021/11/30 09:12:11;;;;;;;1.00;0.50;;;21.00;32.20;;;;;;4974957;28;20501;-67
2021/11/30 09:14:37;;;;;;;0.98;0.50;;;21.00;32.20;;;;;;4970956;28;20497;-69
2021/11/30 09:17:03;;;;;;;1.10;0.50;;;20.90;32.30;;;;;;4969093;28;20402;-73
2021/11/30 09:19:28;;;;;;;0.70;0.40;;;20.90;32.30;;;;;;4970759;28;20423;-70
2021/11/30 09:21:54;;;;;;;0.70;0.50;;;20.90;32.30;;;;;;4965716;28;20993;-71
2021/11/30 09:24:20;;;;;;;0.70;0.47;;;20.90;32.20;;;;;;4973552;28;20400;-70
2021/11/30 09:26:46;;;;;;;1.13;0.50;;;20.90;32.30;;;;;;4972503;28;20450;-69
2021/11/30 09:29:12;;;;;;;0.93;0.50;;;20.90;32.30;;;;;;4970049;28;20804;-69
2021/11/30 09:31:39;;;;;;;0.90;0.50;;;21.00;32.40;;;;;;4968085;28;20406;-70
2021/11/30 09:34:05;;;;;;;1.65;0.70;;;20.90;32.20;;;;;;4974649;28;20392;-69
2021/11/30 09:36:32;;;;;;;0.95;0.57;;;20.90;32.30;;;;;;4974632;28;20437;-73
2021/11/30 09:39:03;;;;;;;0.80;0.50;;;20.90;32.20;;;;;;4974325;28;20489;-69
2021/11/30 09:41:29;;;;;;;1.58;0.70;;;20.90;32.30;;;;;;4975796;28;20399;-69
2021/11/30 09:43:55;;;;;;;0.90;0.60;;;20.90;32.30;;;;;;4975066;28;20467;-70
2021/11/30 09:46:22;;;;;;;0.85;0.60;;;20.90;32.40;;;;;;4976421;28;20400;-71
2021/11/30 09:48:47;;;;;;;1.10;0.60;;;20.90;32.20;;;;;;4969410;28;20426;-69
2021/11/30 09:51:13;;;;;;;0.93;0.70;;;20.90;32.40;;;;;;4978486;28;20416;-70
2021/11/30 09:53:39;;;;;;;1.00;0.60;;;20.90;32.60;;;;;;4976988;28;20398;-70
2021/11/30 09:56:05;;;;;;;0.82;0.50;;;20.90;32.30;;;;;;4976943;28;20402;-70
2021/11/30 09:58:31;;;;;;;1.10;0.70;;;20.90;32.60;;;;;;4972422;28;20398;-73
2021/11/30 10:01:00;;;;;;;0.63;0.50;;;20.90;32.40;;;;;;4978457;28;20396;-69
2021/11/30 10:03:27;;;;;;;1.40;0.50;;;20.90;32.50;;;;;;4978816;28;20438;-71
2021/11/30 10:05:55;;;;;;;0.95;0.60;;;20.90;32.60;;;;;;4980393;28;20398;-69
2021/11/30 10:08:34;;;;;;;1.13;0.43;;;20.90;32.50;;;;;;4979620;28;20423;-70
2021/11/30 10:11:01;;;;;;;1.63;0.50;;;20.90;32.70;;;;;;4979229;28;20426;-69
2021/11/30 10:13:27;;;;;;;0.50;0.40;;;20.90;32.70;;;;;;4978965;28;20506;-71
2021/11/30 10:16:02;;;;;;;0.90;0.60;;;20.90;32.80;;;;;;4975114;28;20404;-72
2021/11/30 10:18:31;;;;;;;0.95;0.50;;;20.90;32.90;;;;;;4979516;28;20428;-71
2021/11/30 10:21:22;;;;;;;0.80;0.40;;;20.90;32.60;;;;;;4976639;28;20449;-70
2021/11/30 10:23:51;;;;;;;0.88;0.50;;;20.90;32.60;;;;;;4978673;28;20919;-73
2021/11/30 10:26:22;;;;;;;0.77;0.50;;;20.90;32.50;;;;;;4972356;28;21205;-72
2021/11/30 10:28:52;;;;;;;0.60;0.40;;;20.90;32.60;;;;;;4969934;28;20526;-70
2021/11/30 10:31:18;;;;;;;1.30;0.50;;;20.90;32.60;;;;;;4972835;28;20524;-70
2021/11/30 10:33:48;;;;;;;0.70;0.40;;;20.80;32.60;;;;;;4978101;28;20895;-71
2021/11/30 10:36:14;;;;;;;0.70;0.50;;;20.80;32.60;;;;;;4969438;28;20418;-70
2021/11/30 10:38:41;;;;;;;0.75;0.50;;;20.80;32.60;;;;;;4972351;28;20402;-71
2021/11/30 10:41:15;;;;;;;0.90;0.60;;;20.80;32.70;;;;;;4974083;28;20392;-72
2021/11/30 10:43:50;;;;;;;0.68;0.50;;;20.80;32.50;;;;;;4972522;28;20407;-73
2021/11/30 10:46:31;;;;;;;0.60;0.40;;;20.80;32.60;;;;;;4972478;28;20400;-73
2021/11/30 10:48:57;;;;;;;0.57;0.40;;;20.80;32.70;;;;;;4970316;28;20461;-69
2021/11/30 10:51:24;;;;;;;1.05;0.52;;;20.80;32.60;;;;;;4974935;28;20948;-69
2021/11/30 10:53:55;;;;;;;0.80;0.40;;;20.80;32.90;;;;;;4977653;28;20510;-72
2021/11/30 10:56:21;;;;;;;0.95;0.50;;;20.80;32.80;;;;;;4975057;28;20516;-70
2021/11/30 10:58:47;;;;;;;0.68;0.40;;;20.80;32.80;;;;;;4972949;28;20459;-72
2021/11/30 11:01:16;;;;;;;0.90;0.50;;;20.80;32.90;;;;;;4971225;28;20395;-72
2021/11/30 11:03:42;;;;;;;0.70;0.50;;;20.80;32.80;;;;;;4970472;28;20436;-70
2021/11/30 11:08:55;;;;;;;0.70;0.50;;;20.80;33.00;;;;;;4977228;28;20451;-72
2021/11/30 11:11:24;;;;;;;0.75;0.45;;;20.80;33.00;;;;;;4971210;28;20896;-69
2021/11/30 11:13:50;;;;;;;0.70;0.50;;;20.80;33.20;;;;;;4972930;28;20396;-73
2021/11/30 11:16:36;;;;;;;0.68;0.40;;;20.80;33.00;;;;;;4967868;28;20892;-69
2021/11/30 11:19:07;;;;;;;1.00;0.50;;;20.80;32.80;;;;;;4967092;28;20911;-72
2021/11/30 11:21:38;;;;;;;1.00;0.50;;;20.80;33.30;;;;;;4972522;28;20392;-69
2021/11/30 11:24:13;;;;;;;0.60;0.50;;;20.80;33.10;;;;;;4973905;28;20415;-72
2021/11/30 11:26:46;;;;;;;0.60;0.50;;;20.80;33.30;;;;;;4971392;28;20434;-69
2021/11/30 11:29:21;;;;;;;0.57;0.40;;;20.80;33.60;;;;;;4975052;28;20392;-70
2021/11/30 11:31:50;;;;;;;1.20;0.40;;;20.80;33.20;;;;;;4973740;28;20404;-68
2021/11/30 11:34:18;;;;;;;0.90;0.50;;;20.80;33.00;;;;;;4972981;28;20401;-70
2021/11/30 11:36:46;;;;;;;0.70;0.40;;;20.80;33.40;;;;;;4970294;28;20396;-70
2021/11/30 11:39:15;;;;;;;0.80;0.40;;;20.80;32.50;;;;;;4969745;28;20391;-72
2021/11/30 11:41:41;;;;;;;0.77;0.40;;;20.80;33.20;;;;;;4968777;28;20474;-72
2021/11/30 11:44:06;;;;;;;0.65;0.38;;;20.70;33.40;;;;;;4977054;28;20475;-69
2021/11/30 11:46:35;;;;;;;0.70;0.40;;;20.70;33.00;;;;;;4972263;28;20495;-72
2021/11/30 11:49:03;;;;;;;0.93;0.40;;;20.70;33.10;;;;;;4968807;28;20404;-69
2021/11/30 11:51:46;;;;;;;0.67;0.50;;;20.70;32.60;;;;;;4971503;28;20425;-72
2021/11/30 11:54:30;;;;;;;0.90;0.47;;;20.70;32.40;;;;;;4968709;28;20393;-71
2021/11/30 11:57:01;;;;;;;0.68;0.38;;;20.70;32.50;;;;;;4970794;28;21580;-71
2021/11/30 11:59:45;;;;;;;0.63;0.40;;;20.70;32.80;;;;;;4974246;28;20398;-70
2021/11/30 12:02:23;;;;;;;0.80;0.40;;;20.70;32.90;;;;;;4971037;28;20901;-71
2021/11/30 12:04:59;;;;;;;0.60;0.40;;;20.70;32.60;;;;;;4974754;28;20400;-72
2021/11/30 12:07:27;;;;;;;0.63;0.47;;;20.70;33.50;;;;;;4973984;28;20404;-69
2021/11/30 12:10:18;;;;;;;0.57;0.40;;;20.70;33.30;;;;;;4971928;28;20990;-72
2021/11/30 12:12:54;;;;;;;0.50;0.30;;;20.70;33.00;;;;;;4974377;28;20888;-72
2021/11/30 12:15:28;;;;;;;0.65;0.47;;;20.70;33.00;;;;;;4972612;28;20440;-69
2021/11/30 12:18:33;;;;;;;0.57;0.40;;;20.70;33.10;;;;;;4970634;28;20399;-69
2021/11/30 12:21:18;;;;;;;0.80;0.40;;;20.70;33.30;;;;;;4971795;28;20487;-69
2021/11/30 12:23:49;;;;;;;1.00;0.50;;;20.70;33.20;;;;;;4964313;28;20437;-68
2021/11/30 12:26:34;;;;;;;0.80;0.50;;;20.70;32.50;;;;;;4975509;28;20406;-68
2021/11/30 12:29:03;;;;;;;1.52;0.93;;;20.70;33.50;;;;;;4978990;28;20408;-69
2021/11/30 12:31:32;;;;;;;0.97;0.50;;;20.70;33.20;;;;;;4968207;28;20430;-69
2021/11/30 12:33:58;;;;;;;0.70;0.40;;;20.80;33.20;;;;;;4975562;28;20731;-69
2021/11/30 12:36:36;;;;;;;1.45;0.70;;;20.70;34.00;;;;;;4974747;28;20413;-69
2021/11/30 12:39:05;;;;;;;1.30;0.60;;;20.70;33.60;;;;;;4964535;28;20485;-69
2021/11/30 12:41:38;;;;;;;0.82;0.50;;;20.80;33.50;;;;;;4970403;28;20892;-69
2021/11/30 12:44:14;;;;;;;1.38;0.70;;;20.80;33.50;;;;;;4973193;28;20409;-69
2021/11/30 12:46:45;;;;;;;1.25;0.60;;;20.80;33.70;;;;;;4971227;28;20451;-69
2021/11/30 12:49:25;;;;;;;1.17;0.70;;;20.80;33.50;;;;;;4974417;28;20402;-69
2021/11/30 12:52:06;;;;;;;2.33;0.90;;;20.80;33.80;;;;;;4970129;28;20441;-68
2021/11/30 12:54:35;;;;;;;1.27;0.70;;;20.80;33.20;;;;;;4973675;28;20400;-68
2021/11/30 12:57:02;;;;;;;1.43;0.70;;;20.80;33.20;;;;;;4974816;28;20797;-69
2021/11/30 12:59:40;;;;;;;1.50;0.85;;;20.70;33.30;;;;;;4977414;28;20392;-68
2021/11/30 13:02:25;;;;;;;1.90;0.80;;;20.70;33.90;;;;;;4973265;28;20426;-70
2021/11/30 13:05:08;;;;;;;2.00;0.70;;;20.70;33.10;;;;;;4972722;28;20390;-68
2021/11/30 13:07:46;;;;;;;1.27;0.70;;;20.70;33.50;;;;;;4968349;28;20406;-70
2021/11/30 13:10:21;;;;;;;1.30;0.85;;;20.70;33.50;;;;;;4969344;28;20422;-68
2021/11/30 13:12:47;;;;;;;1.52;0.90;;;20.70;33.30;;;;;;4977945;28;20419;-69
2021/11/30 13:15:14;;;;;;;1.20;0.70;;;20.70;33.30;;;;;;4967207;28;20463;-69
2021/11/30 13:17:42;;;;;;;1.27;0.85;;;20.70;33.20;;;;;;4974510;28;20415;-69
2021/11/30 13:20:11;;;;;;;1.35;0.73;;;20.70;33.30;;;;;;4978972;28;20473;-68